Time;durP1;ratioP1;P1;durP2;ratioP2;P2;SDS_P1;SDS_P2;PMS_P1;PMS_P2;Temp;Humidity;BMP_temperature;BMP_pressure;BME280_temperature;BME280_humidity;BME280_pressure;Samples;Min_cycle;Max_cycle;Signal;HPM_P1;HPM_P2
2023/05/15 00:01:07;;;;;;;21.00;18.10;;;;;;;13.40;73.85;99843.60;129849;1263;115240;-68
2023/05/15 00:04:10;;;;;;;23.00;19.20;;;;;;;13.37;73.91;99840.90;129739;1262;128995;-68
2023/05/15 00:07:12;;;;;;;23.00;18.40;;;;;;;13.35;74.25;99834.91;129737;1262;114747;-68
2023/05/15 00:10:14;;;;;;;23.20;17.50;;;;;;;13.35;74.24;99831.73;129744;1273;114703;-67
2023/05/15 00:13:17;;;;;;;21.30;19.10;;;;;;;13.33;74.28;99822.02;129837;1278;114746;-67
2023/05/15 00:16:20;;;;;;;23.20;19.30;;;;;;;13.30;74.62;99808.05;129799;1262;114698;-67
2023/05/15 00:19:22;;;;;;;21.80;19.50;;;;;;;13.28;74.85;99802.65;129848;1263;114830;-67
2023/05/15 00:22:25;;;;;;;23.30;20.60;;;;;;;13.25;74.88;99801.54;129890;1260;115697;-67
2023/05/15 00:25:27;;;;;;;26.80;20.80;;;;;;;13.21;74.88;99801.27;129657;1265;127945;-66
2023/05/15 00:28:29;;;;;;;23.60;20.40;;;;;;;13.20;75.17;99802.09;129936;1262;115235;-67
2023/05/15 00:31:32;;;;;;;28.50;20.60;;;;;;;13.19;75.41;99791.05;129854;1262;114776;-66
2023/05/15 00:34:34;;;;;;;26.30;18.20;;;;;;;13.14;75.58;99789.54;129740;1261;114788;-65
2023/05/15 00:37:36;;;;;;;20.40;18.30;;;;;;;13.11;75.93;99781.02;129761;1273;115225;-66
2023/05/15 00:40:40;;;;;;;22.10;18.20;;;;;;;13.09;75.75;99768.79;129893;1260;114733;-66
2023/05/15 00:43:42;;;;;;;23.00;17.70;;;;;;;13.06;76.08;99762.54;129528;1268;115261;-66
2023/05/15 00:46:45;;;;;;;20.40;18.00;;;;;;;13.01;76.16;99753.34;129710;1272;114772;-66
2023/05/15 00:49:48;;;;;;;21.70;17.70;;;;;;;12.98;76.36;99756.61;129709;1262;115159;-66
2023/05/15 00:52:51;;;;;;;21.90;19.50;;;;;;;12.94;76.50;99743.29;129789;1262;114658;-66
2023/05/15 00:55:58;;;;;;;24.40;18.80;;;;;;;12.89;76.19;99729.42;129714;1281;114802;-65
2023/05/15 00:59:03;;;;;;;22.80;18.20;;;;;;;12.85;76.36;99718.05;129732;1265;114735;-65
2023/05/15 01:02:05;;;;;;;24.40;17.70;;;;;;;12.80;76.35;99724.84;129719;1274;128070;-66
2023/05/15 01:05:08;;;;;;;23.40;17.10;;;;;;;12.74;76.58;99721.84;129764;1262;114824;-66
2023/05/15 01:08:20;;;;;;;27.30;18.10;;;;;;;12.70;76.66;99719.83;129925;1263;115145;-66
2023/05/15 01:11:24;;;;;;;21.40;16.80;;;;;;;12.64;76.87;99722.52;129540;1259;370381;-66
2023/05/15 01:14:27;;;;;;;19.20;17.20;;;;;;;12.60;76.97;99721.48;129641;1265;115267;-66
2023/05/15 01:17:30;;;;;;;19.00;16.10;;;;;;;12.57;77.20;99711.34;129702;1273;114830;-65
2023/05/15 01:20:44;;;;;;;19.40;16.50;;;;;;;12.53;77.31;99709.08;129828;1262;114665;-66
2023/05/15 01:24:26;;;;;;;20.90;17.30;;;;;;;12.51;77.66;99704.21;129477;1269;114876;-66
2023/05/15 01:27:51;;;;;;;19.40;15.10;;;;;;;12.47;77.79;99697.35;129736;1271;114683;-66
2023/05/15 01:30:54;;;;;;;20.10;14.50;;;;;;;12.41;77.78;99704.50;129788;1266;114716;-66
2023/05/15 01:34:02;;;;;;;19.90;14.30;;;;;;;12.40;78.07;99702.95;129682;1262;114719;-66
2023/05/15 01:37:05;;;;;;;18.20;14.80;;;;;;;12.41;77.97;99697.75;129724;1269;115238;-65
2023/05/15 01:40:09;;;;;;;18.60;15.40;;;;;;;12.40;78.37;99698.33;129814;1263;114747;-66
2023/05/15 01:43:17;;;;;;;16.60;14.50;;;;;;;12.40;78.20;99699.79;129709;1265;114785;-66
2023/05/15 01:46:21;;;;;;;22.90;14.90;;;;;;;12.40;78.40;99694.02;129564;1266;116586;-66
2023/05/15 01:49:26;;;;;;;17.60;15.40;;;;;;;12.41;78.52;99686.13;129664;1263;128865;-66
2023/05/15 01:52:34;;;;;;;22.30;15.60;;;;;;;12.36;78.86;99683.89;129550;1281;115237;-66
2023/05/15 01:55:38;;;;;;;20.20;16.00;;;;;;;12.36;78.43;99685.00;129607;1270;114816;-66
2023/05/15 01:58:40;;;;;;;20.00;15.90;;;;;;;12.35;78.92;99684.14;129758;1271;114689;-66
2023/05/15 02:01:44;;;;;;;19.10;15.90;;;;;;;12.32;78.99;99677.88;129740;1263;114828;-67
2023/05/15 02:04:47;;;;;;;19.50;15.20;;;;;;;12.30;79.48;99670.46;129800;1262;114728;-66
2023/05/15 02:07:49;;;;;;;17.80;14.70;;;;;;;12.28;79.26;99664.70;129729;1263;114826;-68
2023/05/15 02:10:52;;;;;;;17.60;14.30;;;;;;;12.27;79.10;99655.47;129763;1273;114733;-68
2023/05/15 02:13:56;;;;;;;19.00;15.20;;;;;;;12.25;79.40;99649.38;129705;1262;115398;-66
2023/05/15 02:16:58;;;;;;;18.80;15.00;;;;;;;12.25;79.89;99645.08;129839;1257;114780;-67
2023/05/15 02:20:00;;;;;;;20.50;13.70;;;;;;;12.25;80.05;99643.68;129701;1263;115482;-65
2023/05/15 02:23:02;;;;;;;16.10;14.10;;;;;;;12.22;79.65;99641.86;129960;1262;115058;-67
2023/05/15 02:30:24;;;;;;;;;;;;;;;;;;;;;
2023/05/15 02:34:31;;;;;;;24.80;13.80;;;;;;;12.18;80.37;99623.13;129895;1281;114757;-68
2023/05/15 02:42:37;;;;;;;18.60;14.40;;;;;;;12.17;80.98;99602.96;128756;1276;114792;-70
2023/05/15 02:46:40;;;;;;;19.90;14.40;;;;;;;12.16;81.10;99596.02;126992;1289;129247;-70
2023/05/15 02:50:42;;;;;;;15.90;14.10;;;;;;;12.14;81.04;99585.97;126441;1294;116444;-69
2023/05/15 02:54:37;;;;;;;19.30;14.30;;;;;;;12.13;81.23;99578.92;126005;1296;115003;-70
2023/05/15 02:58:38;;;;;;;15.50;13.70;;;;;;;12.10;81.55;99567.85;125646;1303;114968;-68
2023/05/15 03:07:07;;;;;;;14.40;12.10;;;;;;;12.05;82.03;99548.52;126062;1295;638270;-68
2023/05/15 03:10:40;;;;;;;16.40;12.80;;;;;;;11.98;82.19;99543.04;127843;1282;128742;-68
2023/05/15 03:22:50;;;;;;;11.40;11.70;;;;;;;11.95;82.66;99528.02;121222;1308;114952;-67
2023/05/15 03:31:17;;;;;;;11.10;9.90;;;;;;;12.05;83.14;99510.52;126392;1297;636285;-68
2023/05/15 03:35:20;;;;;;;12.40;9.30;;;;;;;12.05;83.02;99512.72;127706;1284;129170;-69
2023/05/15 03:39:22;;;;;;;12.50;8.60;;;;;;;12.04;83.21;99509.57;127000;1290;115513;-70
2023/05/15 03:43:25;;;;;;;9.50;8.50;;;;;;;12.05;83.79;99500.91;122498;1296;5407954;-71
2023/05/15 03:47:25;;;;;;;;;;;;;;;;;;;;;
2023/05/15 03:51:27;;;;;;;15.30;8.80;;;;;;;12.09;83.85;99490.20;124951;1329;115061;-70
2023/05/15 04:00:00;;;;;;;;;;;;;;;;;;;;;
2023/05/15 04:04:05;;;;;;;10.90;9.20;;;;;;;12.12;84.16;99476.38;129044;1271;128901;-71
2023/05/15 04:12:10;;;;;;;11.10;9.60;;;;;;;12.13;84.63;99480.46;123385;1305;5543057;-70
2023/05/15 04:16:14;;;;;;;10.40;9.00;;;;;;;12.13;84.30;99473.86;125662;1297;115208;-68
2023/05/15 04:32:45;;;;;;;11.10;9.90;;;;;;;12.07;84.74;99470.67;125754;1301;638525;-69
2023/05/15 04:36:48;;;;;;;14.60;10.50;;;;;;;12.10;85.12;99470.81;128216;1299;128889;-70
2023/05/15 04:40:52;;;;;;;11.90;10.50;;;;;;;12.13;85.43;99469.20;126891;1292;115237;-69
2023/05/15 04:44:55;;;;;;;12.30;9.50;;;;;;;12.17;85.80;99464.41;122289;1299;5458595;-70
2023/05/15 04:53:22;;;;;;;10.90;9.60;;;;;;;12.16;85.32;99453.96;126370;1297;636141;-70
2023/05/15 04:57:24;;;;;;;12.40;9.50;;;;;;;12.17;85.39;99453.89;128164;1281;128311;-68
2023/05/15 05:01:26;;;;;;;11.60;9.60;;;;;;;12.17;85.50;99450.13;127517;1287;115429;-67
2023/05/15 05:05:29;;;;;;;10.90;9.50;;;;;;;12.20;85.77;99442.91;123916;1283;5441636;-68
2023/05/15 05:09:31;;;;;;;12.10;10.80;;;;;;;12.24;85.98;99441.59;126904;1308;114846;-70
2023/05/15 05:13:32;;;;;;;10.90;9.70;;;;;;;12.27;85.97;99437.96;126895;1289;114840;-68
2023/05/15 05:17:27;;;;;;;13.50;9.80;;;;;;;12.28;86.06;99431.76;125656;1297;114878;-69
2023/05/15 05:25:51;;;;;;;11.30;9.50;;;;;;;12.38;86.61;99422.86;126483;1295;635818;-66
2023/05/15 05:29:53;;;;;;;11.40;9.50;;;;;;;12.39;86.49;99414.40;128795;1276;127838;-70
2023/05/15 05:33:56;;;;;;;11.10;9.50;;;;;;;12.42;86.60;99408.27;127172;1308;115222;-69
2023/05/15 05:38:01;;;;;;;11.30;9.30;;;;;;;12.46;86.40;99399.20;122490;1296;5456748;-68
2023/05/15 05:41:59;;;;;;;;;;;;;;;;;;;;;
2023/05/15 05:46:02;;;;;;;14.40;9.90;;;;;;;12.50;86.65;99400.92;125042;1310;115070;-69
2023/05/15 05:54:29;;;;;;;14.80;11.40;;;;;;;12.58;86.57;99387.73;126053;1294;635382;-67
2023/05/15 06:02:34;;;;;;;12.00;9.50;;;;;;;12.54;87.21;99380.53;126263;1296;115439;-68
2023/05/15 06:10:17;;;;;;;10.20;9.10;;;;;;;12.52;87.12;99365.31;124052;1335;115075;-68
2023/05/15 06:14:19;;;;;;;11.40;10.20;;;;;;;12.53;87.31;99357.14;123788;1312;115092;-68
2023/05/15 06:22:47;;;;;;;13.80;11.70;;;;;;;12.60;87.32;99347.85;125909;1305;635748;-68
2023/05/15 06:26:46;;;;;;;;;;;;;;;;;;;;;
2023/05/15 06:34:53;;;;;;;15.10;11.50;;;;;;;12.79;87.81;99343.09;123441;1287;5428693;-66
2023/05/15 06:38:54;;;;;;;15.00;12.10;;;;;;;12.82;87.81;99343.02;126184;1297;114903;-68
2023/05/15 06:59:34;;;;;;;25.60;14.70;;;;;;;13.01;88.41;99327.61;125752;1298;639467;-69
2023/05/15 07:03:37;;;;;;;20.20;14.00;;;;;;;13.09;88.74;99329.35;127733;1287;128360;-70
2023/05/15 07:07:40;;;;;;;14.60;13.20;;;;;;;13.20;88.62;99322.94;127046;1290;114924;-70
2023/05/15 07:11:36;;;;;;;;;;;;;;;;;;;;;
2023/05/15 07:24:11;;;;;;;15.50;13.20;;;;;;;13.63;88.91;99318.11;125891;1298;636696;-70
2023/05/15 07:28:15;;;;;;;;;;;;;;;;;;;;;
2023/05/15 07:32:20;;;;;;;13.00;10.60;;;;;;;13.72;88.03;99313.29;128446;1283;115394;-69
2023/05/15 07:44:25;;;;;;;12.70;11.50;;;;;;;14.26;89.24;99311.72;124992;1309;114950;-70
2023/05/15 07:48:27;;;;;;;13.00;11.70;;;;;;;14.42;89.33;99310.39;124292;1313;114981;-69
2023/05/15 07:52:21;;;;;;;;;;;;;;;;;;;;;
2023/05/15 08:05:07;;;;;;;12.30;11.10;;;;;;;14.98;88.86;99300.64;127374;1285;128744;-70
2023/05/15 08:17:51;;;;;;;11.70;10.70;;;;;;;15.64;88.08;99286.60;126394;1294;114705;-67
2023/05/15 08:21:47;;;;;;;11.70;9.90;;;;;;;15.84;88.12;99282.48;125849;1314;114888;-67
2023/05/15 08:25:48;;;;;;;12.10;10.00;;;;;;;16.05;87.88;99284.45;124780;1319;114980;-65
2023/05/15 08:38:03;;;;;;;;;;;;;;;;;;;;;
2023/05/15 08:42:14;;;;;;;9.40;7.60;;;;;;;17.08;87.26;99282.61;128853;1280;115472;-63
2023/05/15 08:46:16;;;;;;;8.20;7.40;;;;;;;17.16;86.03;99281.09;124483;1275;5423324;-67
2023/05/15 08:50:35;;;;;;;8.20;7.30;;;;;;;17.17;85.97;99279.98;126951;1293;114957;-68
2023/05/15 09:07:09;;;;;;;;;;;;;;;;;;;;;
2023/05/15 09:11:14;;;;;;;8.60;7.00;;;;;;;17.42;84.51;99280.88;128882;1273;129077;-72
2023/05/15 09:19:19;;;;;;;8.50;7.40;;;;;;;17.25;83.84;99275.44;122824;1290;5411553;-71
2023/05/15 09:23:45;;;;;;;8.10;7.30;;;;;;;17.25;84.19;99272.66;125794;1303;115105;-67
2023/05/15 09:36:10;;;;;;;;;;;;;;;;;;;;;
2023/05/15 09:40:07;;;;;;;;;;;;;;;;;;;;;
2023/05/15 09:44:14;;;;;;;10.70;9.60;;;;;;;16.67;83.07;99276.76;122610;1293;5762143;-66
2023/05/15 09:48:15;;;;;;;;;;;;;;;;;;;;;
2023/05/15 09:52:18;;;;;;;11.70;9.60;;;;;;;16.51;83.84;99273.55;125329;1299;114876;-68
2023/05/15 10:00:48;;;;;;;11.60;10.50;;;;;;;16.57;83.92;99267.36;125585;1305;637213;-63
2023/05/15 10:09:48;;;;;;;12.70;9.90;;;;;;;16.86;84.48;99275.92;126048;1306;115017;-64
2023/05/15 10:13:36;;;;;;;11.50;10.30;;;;;;;17.28;84.97;99267.74;121089;1314;5410459;-62
2023/05/15 10:26:27;;;;;;;13.60;10.40;;;;;;;18.15;83.28;99268.30;127903;1285;128946;-63
2023/05/15 10:30:30;;;;;;;11.30;9.90;;;;;;;18.15;82.61;99276.63;126827;1292;116423;-66
2023/05/15 10:34:30;;;;;;;10.30;9.30;;;;;;;17.99;81.68;99270.98;122489;1308;5492901;-64
2023/05/15 10:38:32;;;;;;;11.70;10.60;;;;;;;17.87;81.70;99275.10;125351;1305;114945;-65
2023/05/15 10:42:33;;;;;;;10.50;9.40;;;;;;;17.85;82.06;99270.46;124286;1314;116570;-62
2023/05/15 10:50:53;;;;;;;10.00;8.80;;;;;;;18.03;82.25;99270.89;125590;1299;636801;-64
2023/05/15 10:54:56;;;;;;;11.70;8.80;;;;;;;18.01;81.43;99271.52;127721;1280;127647;-64
2023/05/15 10:58:54;;;;;;;;;;;;;;;;;;;;;
2023/05/15 11:02:59;;;;;;;;;;;;;;;;;;;;;
2023/05/15 11:07:09;;;;;;;9.30;8.30;;;;;;;18.58;82.22;99274.06;126707;1292;114850;-67
2023/05/15 11:11:27;;;;;;;6.90;6.00;;;;;;;18.83;81.66;99267.73;126378;1310;114920;-78
2023/05/15 11:15:35;;;;;;;5.20;4.70;;;;;;;19.19;81.62;99263.59;126118;1301;114828;-74
2023/05/15 11:19:39;;;;;;;4.50;4.10;;;;;;;19.49;80.59;99254.20;126359;1293;128633;-77
2023/05/15 11:23:32;;;;;;;;;;;;;;;;;;;;;
2023/05/15 11:27:40;;;;;;;4.70;4.30;;;;;;;20.01;78.83;99241.55;124417;1319;114997;-67
2023/05/15 11:31:42;;;;;;;4.60;4.20;;;;;;;20.29;78.33;99233.49;123372;1318;116510;-68
2023/05/15 11:35:45;;;;;;;4.90;4.50;;;;;;;20.44;77.93;99229.86;123718;1325;114950;-69
2023/05/15 11:39:45;;;;;;;4.90;4.40;;;;;;;20.66;77.43;99225.38;124324;1318;129929;-67
2023/05/15 11:48:18;;;;;;;5.00;4.20;;;;;;;21.07;76.49;99217.70;126404;1292;635816;-68
2023/05/15 11:52:17;;;;;;;4.30;3.90;;;;;;;21.07;75.00;99220.33;129223;1290;129053;-69
2023/05/15 11:56:11;;;;;;;6.00;4.60;;;;;;;21.02;74.91;99220.93;127919;1284;115306;-70
2023/05/15 12:00:11;;;;;;;;;;;;;;;;;;;;;
2023/05/15 12:12:57;;;;;;;5.10;4.50;;;;;;;21.14;73.51;99215.10;126774;1292;636228;-70
2023/05/15 12:17:24;;;;;;;5.80;5.20;;;;;;;20.90;71.88;99218.61;128817;1278;128703;-65
2023/05/15 12:29:09;;;;;;;4.90;4.20;;;;;;;20.65;71.84;99209.15;126405;1298;115249;-66
2023/05/15 12:33:14;;;;;;;4.10;3.70;;;;;;;20.53;71.64;99202.86;125484;1322;115600;-67
2023/05/15 12:37:16;;;;;;;3.50;3.20;;;;;;;20.37;71.62;99200.27;125436;1307;131555;-71
2023/05/15 12:45:40;;;;;;;3.00;2.70;;;;;;;20.22;71.27;99205.80;126234;1302;636184;-67
2023/05/15 12:58:21;;;;;;;2.70;2.50;;;;;;;20.12;71.06;99201.21;124608;1276;5510052;-65
2023/05/15 13:06:14;;;;;;;2.50;2.30;;;;;;;20.22;70.42;99196.98;126409;1312;114976;-67
2023/05/15 13:10:15;;;;;;;2.30;2.20;;;;;;;20.22;70.51;99198.02;125951;1319;116544;-67
2023/05/15 13:22:57;;;;;;;3.30;3.00;;;;;;;19.87;69.67;99205.88;127773;1278;126994;-66
2023/05/15 13:26:58;;;;;;;;;;;;;;;;;;;;;
2023/05/15 13:30:45;;;;;;;3.00;2.80;;;;;;;19.76;68.61;99205.80;121804;1303;5506998;-72
2023/05/15 13:34:46;;;;;;;3.80;3.50;;;;;;;19.66;67.83;99211.30;125764;1304;114972;-68
2023/05/15 13:43:13;;;;;;;4.40;3.30;;;;;;;19.48;67.31;99211.91;125707;1299;636954;-64
2023/05/15 13:47:16;;;;;;;5.00;4.50;;;;;;;19.35;67.24;99213.88;127790;1279;128894;-69
2023/05/15 13:51:19;;;;;;;5.00;3.70;;;;;;;19.23;67.33;99212.91;127330;1288;116451;-68
2023/05/15 13:55:22;;;;;;;5.60;5.10;;;;;;;19.07;67.72;99216.73;122528;1295;5448397;-66
2023/05/15 13:59:24;;;;;;;4.50;3.90;;;;;;;18.94;67.98;99222.52;125603;1299;114869;-67
2023/05/15 14:03:25;;;;;;;5.00;3.70;;;;;;;18.80;68.49;99227.85;125138;1313;116534;-72
2023/05/15 14:11:40;;;;;;;5.20;4.80;;;;;;;18.75;69.04;99239.64;126171;1295;635848;-67
2023/05/15 14:15:43;;;;;;;4.90;4.40;;;;;;;18.69;68.78;99236.61;128449;1278;127845;-75
2023/05/15 14:23:42;;;;;;;;;;;;;;;;;;;;;
2023/05/15 14:27:45;;;;;;;4.50;4.10;;;;;;;18.65;69.06;99247.05;125825;1308;114837;-70
2023/05/15 14:31:46;;;;;;;4.80;4.40;;;;;;;18.64;68.92;99244.18;125443;1324;114997;-66
2023/05/15 14:40:21;;;;;;;4.20;3.30;;;;;;;18.66;69.34;99248.16;125538;1302;639510;-65
2023/05/15 14:44:23;;;;;;;4.30;3.90;;;;;;;18.68;69.25;99253.11;127341;1288;129057;-68
2023/05/15 14:48:25;;;;;;;3.90;3.50;;;;;;;18.65;69.29;99251.31;126377;1299;115495;-66
2023/05/15 14:52:15;;;;;;;3.60;3.30;;;;;;;18.56;69.09;99250.77;121567;1305;5422161;-66
2023/05/15 15:00:44;;;;;;;4.40;2.90;;;;;;;18.15;68.82;99265.75;126411;1295;637022;-66
2023/05/15 15:09:02;;;;;;;2.60;2.40;;;;;;;17.61;68.85;99266.58;129160;1271;115189;-69
2023/05/15 15:13:06;;;;;;;4.10;2.50;;;;;;;17.39;68.89;99269.01;124581;1280;5544243;-64
2023/05/15 15:17:09;;;;;;;3.50;3.00;;;;;;;17.17;69.30;99269.15;127589;1283;115016;-63
2023/05/15 15:21:12;;;;;;;4.10;3.50;;;;;;;16.99;69.52;99270.93;126922;1287;114842;-64
2023/05/15 15:25:14;;;;;;;2.70;2.50;;;;;;;16.74;69.55;99269.96;125752;1301;126882;-64
2023/05/15 15:33:17;;;;;;;4.00;3.20;;;;;;;16.30;70.13;99275.41;125788;1301;114865;-66
2023/05/15 15:49:57;;;;;;;14.00;4.30;;;;;;;16.46;70.88;99273.42;125909;1314;639950;-66
2023/05/15 15:53:58;;;;;;;6.40;3.80;;;;;;;16.57;71.09;99273.70;127546;1295;128074;-66
2023/05/15 16:06:04;;;;;;;7.10;4.00;;;;;;;16.61;70.21;99285.98;125595;1324;115055;-66
2023/05/15 16:18:34;;;;;;;5.30;4.50;;;;;;;16.58;70.19;99279.73;127545;1306;127851;-65
2023/05/15 16:22:36;;;;;;;7.20;4.70;;;;;;;16.53;70.17;99280.57;126054;1302;114977;-64
2023/05/15 16:26:37;;;;;;;7.40;5.30;;;;;;;16.54;70.39;99278.52;121144;1310;5490581;-66
2023/05/15 16:39:15;;;;;;;7.90;7.10;;;;;;;16.68;70.32;99281.55;127781;1296;127705;-74
2023/05/15 16:43:21;;;;;;;8.30;7.50;;;;;;;16.63;70.03;99280.52;127958;1296;115154;-71
2023/05/15 16:47:21;;;;;;;9.10;7.80;;;;;;;16.63;70.20;99282.93;124217;1279;5495282;-68
2023/05/15 16:51:22;;;;;;;9.50;8.30;;;;;;;16.65;70.12;99292.30;126448;1312;114942;-70
2023/05/15 16:55:24;;;;;;;9.80;8.70;;;;;;;16.66;70.34;99295.79;125912;1305;115055;-66
2023/05/15 17:03:25;;;;;;;;;;;;;;;;;;;;;
2023/05/15 17:12:01;;;;;;;10.80;9.30;;;;;;;16.49;70.32;99321.95;128068;1302;127819;-67
2023/05/15 17:20:06;;;;;;;11.50;9.10;;;;;;;16.27;70.73;99317.31;122803;1293;5426061;-72
2023/05/15 17:24:07;;;;;;;10.10;9.20;;;;;;;16.14;70.69;99316.84;125517;1305;115047;-71
2023/05/15 17:32:27;;;;;;;10.90;9.80;;;;;;;15.97;71.13;99326.59;125953;1299;636083;-72
2023/05/15 17:36:30;;;;;;;13.40;9.50;;;;;;;15.86;71.40;99327.91;127581;1303;127757;-69
2023/05/15 17:44:35;;;;;;;11.50;10.40;;;;;;;15.70;71.87;99334.09;122197;1299;5692564;-66
2023/05/15 17:49:01;;;;;;;12.00;10.70;;;;;;;15.65;72.03;99336.16;125333;1326;114904;-67
2023/05/15 17:57:06;;;;;;;12.20;11.00;;;;;;;15.59;73.14;99334.02;126013;1307;636273;-74
2023/05/15 18:01:10;;;;;;;14.20;11.90;;;;;;;15.50;73.45;99346.61;128752;1295;128841;-72
2023/05/15 18:05:13;;;;;;;13.20;11.80;;;;;;;15.45;73.66;99347.38;128906;1293;115482;-73
2023/05/15 18:09:15;;;;;;;12.40;11.10;;;;;;;15.39;73.63;99360.66;124342;1280;5475184;-73
2023/05/15 18:13:17;;;;;;;15.00;13.30;;;;;;;15.30;74.20;99373.53;126551;1303;114976;-73
2023/05/15 18:25:40;;;;;;;;;;;;;;;;;;;;;
2023/05/15 18:29:40;;;;;;;16.90;13.20;;;;;;;14.87;74.48;99383.89;127599;1286;114911;-72
2023/05/15 18:33:43;;;;;;;14.40;12.90;;;;;;;14.78;74.86;99385.88;122175;1298;5696522;-68
2023/05/15 18:50:16;;;;;;;14.60;11.30;;;;;;;14.42;75.66;99418.15;126247;1295;636944;-67
2023/05/15 18:54:10;;;;;;;18.90;11.60;;;;;;;14.28;75.67;99415.93;128193;1276;128756;-72
2023/05/15 18:58:12;;;;;;;12.70;11.40;;;;;;;14.12;75.78;99421.95;127081;1287;115468;-65
2023/05/15 19:02:14;;;;;;;31.40;21.40;;;;;;;13.95;75.74;99424.36;123058;1291;5435152;-67
2023/05/15 19:06:18;;;;;;;18.80;15.80;;;;;;;13.79;75.95;99435.34;125896;1304;115057;-66
2023/05/15 19:10:15;;;;;;;19.10;14.20;;;;;;;13.62;75.78;99443.27;124889;1313;115014;-66
2023/05/15 19:18:50;;;;;;;17.20;14.40;;;;;;;13.31;76.46;99455.40;125864;1301;638986;-73
2023/05/15 19:22:53;;;;;;;19.60;14.10;;;;;;;13.12;76.59;99459.65;128685;1295;127992;-67
2023/05/15 19:26:56;;;;;;;18.50;14.30;;;;;;;12.98;76.83;99465.00;127750;1282;115286;-65
2023/05/15 19:30:57;;;;;;;15.80;12.60;;;;;;;12.83;76.96;99466.95;122936;1289;5431166;-66
2023/05/15 19:34:58;;;;;;;18.00;12.70;;;;;;;12.68;77.25;99474.63;126424;1297;114953;-70
2023/05/15 19:38:58;;;;;;;;;;;;;;;;;;;;;
2023/05/15 19:43:16;;;;;;;13.20;11.70;;;;;;;12.44;77.53;99479.42;127041;1286;129469;-73
2023/05/15 19:47:16;;;;;;;14.70;11.70;;;;;;;12.31;77.73;99485.46;125989;1296;114923;-68
2023/05/15 19:55:54;;;;;;;14.50;12.20;;;;;;;12.13;77.85;99481.70;126135;1300;639052;-72
2023/05/15 19:59:55;;;;;;;;;;;;;;;;;;;;;
2023/05/15 20:07:57;;;;;;;;;;;;;;;;;;;;;
2023/05/15 20:11:42;;;;;;;13.50;11.10;;;;;;;11.74;78.47;99473.06;126286;1297;114977;-71
2023/05/15 20:15:51;;;;;;;10.90;9.80;;;;;;;11.66;78.55;99478.45;125901;1317;115048;-66
2023/05/15 20:19:51;;;;;;;;;;;;;;;;;;;;;
2023/05/15 20:28:26;;;;;;;;;;;;;;;;;;;;;
2023/05/15 20:32:23;;;;;;;12.40;11.00;;;;;;;11.33;79.17;99489.19;127961;1285;129399;-66
2023/05/15 20:36:25;;;;;;;15.60;13.00;;;;;;;11.26;79.19;99497.89;127008;1309;115063;-65
2023/05/15 20:40:25;;;;;;;;;;;;;;;;;;;;;
2023/05/15 20:44:28;;;;;;;19.10;12.70;;;;;;;11.14;79.72;99497.80;125134;1305;114860;-68
2023/05/15 20:56:34;;;;;;;17.10;15.30;;;;;;;10.99;80.02;99497.28;126564;1295;635194;-68
2023/05/15 21:00:37;;;;;;;20.40;14.30;;;;;;;10.91;80.08;99507.08;128427;1281;128152;-67
2023/05/15 21:04:40;;;;;;;17.20;13.00;;;;;;;10.85;80.01;99506.60;128578;1278;115194;-66
2023/05/15 21:12:44;;;;;;;22.10;19.40;;;;;;;10.71;80.39;99501.36;126544;1312;114977;-67
2023/05/15 21:25:20;;;;;;;36.50;26.90;;;;;;;10.57;80.60;99497.95;125626;1303;638542;-69
2023/05/15 21:45:30;;;;;;;25.20;19.00;;;;;;;10.24;80.96;99502.48;124270;1332;115067;-66
2023/05/15 21:54:02;;;;;;;;;;;;;;;;;;;;;
2023/05/15 21:58:26;;;;;;;20.70;17.50;;;;;;;10.06;80.99;99514.79;126670;1295;129333;-65
2023/05/15 22:02:30;;;;;;;27.70;19.60;;;;;;;10.00;81.03;99516.55;126696;1290;116560;-70
2023/05/15 22:14:37;;;;;;;19.40;17.00;;;;;;;9.82;81.45;99532.04;125041;1310;114997;-68
2023/05/15 22:23:13;;;;;;;23.20;19.00;;;;;;;9.75;81.43;99544.40;125954;1302;639955;-73
2023/05/15 22:31:22;;;;;;;22.30;17.30;;;;;;;9.63;81.65;99550.30;127562;1288;116411;-66
2023/05/15 22:35:45;;;;;;;21.70;17.50;;;;;;;9.56;81.54;99548.86;122181;1299;5441367;-73
2023/05/15 22:39:28;;;;;;;20.50;16.40;;;;;;;9.50;81.70;99546.19;125721;1320;115382;-66
2023/05/15 22:43:30;;;;;;;18.90;15.10;;;;;;;9.46;81.80;99547.16;125376;1311;114856;-73
2023/05/15 22:51:55;;;;;;;20.50;17.20;;;;;;;9.38;81.86;99552.04;126513;1295;636040;-69
2023/05/15 23:00:01;;;;;;;20.60;15.90;;;;;;;9.27;81.83;99558.36;128029;1279;115361;-67
2023/05/15 23:04:04;;;;;;;17.90;14.70;;;;;;;9.22;81.92;99557.90;122513;1312;5487082;-72
2023/05/15 23:08:05;;;;;;;19.00;16.10;;;;;;;9.18;81.87;99563.67;124927;1308;114997;-76
2023/05/15 23:24:49;;;;;;;23.70;16.30;;;;;;;8.97;82.44;99573.21;128257;1300;115289;-66
2023/05/15 23:28:51;;;;;;;26.60;15.70;;;;;;;8.92;82.27;99577.55;127479;1286;115054;-74
2023/05/15 23:32:58;;;;;;;21.80;18.00;;;;;;;8.88;82.70;99573.52;126539;1293;114976;-72
2023/05/15 23:41:01;;;;;;;19.60;15.30;;;;;;;8.79;82.59;99575.05;124964;1310;130432;-72
2023/05/15 23:49:21;;;;;;;20.40;17.70;;;;;;;8.75;82.52;99586.30;126082;1299;636048;-71
2023/05/15 23:57:27;;;;;;;21.20;16.20;;;;;;;8.65;82.54;99587.15;128597;1277;115204;-67
